sensor_id;sensor_type;location;lat;lon;timestamp;P1;durP1;ratioP1;P2;durP2;ratioP2
48881;SDS011;57063;51.406;-2.402;2022-12-16T00:00:34;33.60;;;15.32;;
48881;SDS011;57063;51.406;-2.402;2022-12-16T00:03:00;28.42;;;16.13;;
48881;SDS011;57063;51.406;-2.402;2022-12-16T00:05:26;31.15;;;16.95;;
48881;SDS011;57063;51.406;-2.402;2022-12-16T00:07:52;30.13;;;16.90;;
48881;SDS011;57063;51.406;-2.402;2022-12-16T00:10:19;43.30;;;18.35;;
48881;SDS011;57063;51.406;-2.402;2022-12-16T00:12:45;34.22;;;15.57;;
48881;SDS011;57063;51.406;-2.402;2022-12-16T00:15:11;28.65;;;16.20;;
48881;SDS011;57063;51.406;-2.402;2022-12-16T00:17:36;27.55;;;15.35;;
48881;SDS011;57063;51.406;-2.402;2022-12-16T00:20:03;30.50;;;15.50;;
48881;SDS011;57063;51.406;-2.402;2022-12-16T00:22:29;29.08;;;16.63;;
48881;SDS011;57063;51.406;-2.402;2022-12-16T00:24:55;28.17;;;16.40;;
48881;SDS011;57063;51.406;-2.402;2022-12-16T00:27:21;36.42;;;17.10;;
48881;SDS011;57063;51.406;-2.402;2022-12-16T00:29:46;28.73;;;16.67;;
48881;SDS011;57063;51.406;-2.402;2022-12-16T00:32:12;25.60;;;16.10;;
48881;SDS011;57063;51.406;-2.402;2022-12-16T00:34:37;24.15;;;15.63;;
48881;SDS011;57063;51.406;-2.402;2022-12-16T00:37:03;30.98;;;17.30;;
48881;SDS011;57063;51.406;-2.402;2022-12-16T00:39:28;30.60;;;17.25;;
48881;SDS011;57063;51.406;-2.402;2022-12-16T00:41:54;35.85;;;17.70;;
48881;SDS011;57063;51.406;-2.402;2022-12-16T00:44:19;26.80;;;16.30;;
48881;SDS011;57063;51.406;-2.402;2022-12-16T00:46:45;27.77;;;16.08;;
48881;SDS011;57063;51.406;-2.402;2022-12-16T00:49:11;30.17;;;15.57;;
48881;SDS011;57063;51.406;-2.402;2022-12-16T00:51:36;29.25;;;15.45;;
48881;SDS011;57063;51.406;-2.402;2022-12-16T00:54:02;33.20;;;16.60;;
48881;SDS011;57063;51.406;-2.402;2022-12-16T00:56:27;23.85;;;14.05;;
48881;SDS011;57063;51.406;-2.402;2022-12-16T00:58:53;25.08;;;14.52;;
48881;SDS011;57063;51.406;-2.402;2022-12-16T01:01:18;27.70;;;14.77;;
48881;SDS011;57063;51.406;-2.402;2022-12-16T01:03:44;31.00;;;14.15;;
48881;SDS011;57063;51.406;-2.402;2022-12-16T01:06:11;24.30;;;14.27;;
48881;SDS011;57063;51.406;-2.402;2022-12-16T01:08:39;28.23;;;14.82;;
48881;SDS011;57063;51.406;-2.402;2022-12-16T01:11:05;32.25;;;15.90;;
48881;SDS011;57063;51.406;-2.402;2022-12-16T01:13:30;30.55;;;14.32;;
48881;SDS011;57063;51.406;-2.402;2022-12-16T01:16:00;26.38;;;14.82;;
48881;SDS011;57063;51.406;-2.402;2022-12-16T01:18:26;30.40;;;15.30;;
48881;SDS011;57063;51.406;-2.402;2022-12-16T01:20:51;28.30;;;13.98;;
48881;SDS011;57063;51.406;-2.402;2022-12-16T01:23:17;24.92;;;15.00;;
48881;SDS011;57063;51.406;-2.402;2022-12-16T01:25:42;26.77;;;14.88;;
48881;SDS011;57063;51.406;-2.402;2022-12-16T01:28:08;24.42;;;14.63;;
48881;SDS011;57063;51.406;-2.402;2022-12-16T01:30:34;23.05;;;13.40;;
48881;SDS011;57063;51.406;-2.402;2022-12-16T01:33:00;26.17;;;13.40;;
48881;SDS011;57063;51.406;-2.402;2022-12-16T01:35:25;25.13;;;15.40;;
48881;SDS011;57063;51.406;-2.402;2022-12-16T01:37:51;26.40;;;16.35;;
48881;SDS011;57063;51.406;-2.402;2022-12-16T01:40:21;29.88;;;14.80;;
48881;SDS011;57063;51.406;-2.402;2022-12-16T01:42:48;22.08;;;13.65;;
48881;SDS011;57063;51.406;-2.402;2022-12-16T01:45:35;26.95;;;14.30;;
48881;SDS011;57063;51.406;-2.402;2022-12-16T01:48:02;21.85;;;12.95;;
48881;SDS011;57063;51.406;-2.402;2022-12-16T01:50:47;24.27;;;14.85;;
48881;SDS011;57063;51.406;-2.402;2022-12-16T01:53:14;28.70;;;14.48;;
48881;SDS011;57063;51.406;-2.402;2022-12-16T01:55:42;23.45;;;14.30;;
48881;SDS011;57063;51.406;-2.402;2022-12-16T02:00:47;25.10;;;13.95;;
48881;SDS011;57063;51.406;-2.402;2022-12-16T02:03:14;21.63;;;11.75;;
48881;SDS011;57063;51.406;-2.402;2022-12-16T02:05:40;22.20;;;13.10;;
48881;SDS011;57063;51.406;-2.402;2022-12-16T02:08:11;22.23;;;13.15;;
48881;SDS011;57063;51.406;-2.402;2022-12-16T02:41:06;30.08;;;15.00;;
48881;SDS011;57063;51.406;-2.402;2022-12-16T02:43:54;29.27;;;14.77;;
48881;SDS011;57063;51.406;-2.402;2022-12-16T02:46:24;22.85;;;14.45;;
48881;SDS011;57063;51.406;-2.402;2022-12-16T02:48:52;23.45;;;13.73;;
48881;SDS011;57063;51.406;-2.402;2022-12-16T02:51:18;24.67;;;15.60;;
48881;SDS011;57063;51.406;-2.402;2022-12-16T02:53:48;30.80;;;15.85;;
48881;SDS011;57063;51.406;-2.402;2022-12-16T02:59:10;28.45;;;15.30;;
48881;SDS011;57063;51.406;-2.402;2022-12-16T03:01:43;28.02;;;15.15;;
48881;SDS011;57063;51.406;-2.402;2022-12-16T03:07:08;25.38;;;14.73;;
48881;SDS011;57063;51.406;-2.402;2022-12-16T03:09:38;29.92;;;17.70;;
48881;SDS011;57063;51.406;-2.402;2022-12-16T03:12:07;24.33;;;15.57;;
48881;SDS011;57063;51.406;-2.402;2022-12-16T03:14:36;28.83;;;16.90;;
48881;SDS011;57063;51.406;-2.402;2022-12-16T03:17:06;26.45;;;16.33;;
48881;SDS011;57063;51.406;-2.402;2022-12-16T03:19:36;30.48;;;16.27;;
48881;SDS011;57063;51.406;-2.402;2022-12-16T03:22:13;24.90;;;15.32;;
48881;SDS011;57063;51.406;-2.402;2022-12-16T03:24:44;27.80;;;15.43;;
48881;SDS011;57063;51.406;-2.402;2022-12-16T03:30:05;25.38;;;14.52;;
48881;SDS011;57063;51.406;-2.402;2022-12-16T03:32:48;30.90;;;17.52;;
48881;SDS011;57063;51.406;-2.402;2022-12-16T03:35:21;22.90;;;14.60;;
48881;SDS011;57063;51.406;-2.402;2022-12-16T03:37:53;37.13;;;17.13;;
48881;SDS011;57063;51.406;-2.402;2022-12-16T03:40:21;25.42;;;17.15;;
48881;SDS011;57063;51.406;-2.402;2022-12-16T03:42:50;26.65;;;16.00;;
48881;SDS011;57063;51.406;-2.402;2022-12-16T03:45:18;30.00;;;16.80;;
48881;SDS011;57063;51.406;-2.402;2022-12-16T03:47:49;29.03;;;16.40;;
48881;SDS011;57063;51.406;-2.402;2022-12-16T03:50:16;25.40;;;16.05;;
48881;SDS011;57063;51.406;-2.402;2022-12-16T03:52:45;23.55;;;13.57;;
48881;SDS011;57063;51.406;-2.402;2022-12-16T03:55:11;27.70;;;14.73;;
48881;SDS011;57063;51.406;-2.402;2022-12-16T03:57:36;33.92;;;16.25;;
48881;SDS011;57063;51.406;-2.402;2022-12-16T04:00:02;28.55;;;15.45;;
48881;SDS011;57063;51.406;-2.402;2022-12-16T04:02:29;24.25;;;16.05;;
48881;SDS011;57063;51.406;-2.402;2022-12-16T04:04:54;28.05;;;16.40;;
48881;SDS011;57063;51.406;-2.402;2022-12-16T04:07:20;27.33;;;17.75;;
48881;SDS011;57063;51.406;-2.402;2022-12-16T04:09:46;28.90;;;17.77;;
48881;SDS011;57063;51.406;-2.402;2022-12-16T04:12:13;29.83;;;18.73;;
48881;SDS011;57063;51.406;-2.402;2022-12-16T04:14:57;29.98;;;16.65;;
48881;SDS011;57063;51.406;-2.402;2022-12-16T04:17:41;34.95;;;18.25;;
48881;SDS011;57063;51.406;-2.402;2022-12-16T04:20:30;30.85;;;17.13;;
48881;SDS011;57063;51.406;-2.402;2022-12-16T04:23:17;34.60;;;18.13;;
48881;SDS011;57063;51.406;-2.402;2022-12-16T04:26:02;34.40;;;17.33;;
48881;SDS011;57063;51.406;-2.402;2022-12-16T04:28:28;28.60;;;17.73;;
48881;SDS011;57063;51.406;-2.402;2022-12-16T04:30:54;27.15;;;16.50;;
48881;SDS011;57063;51.406;-2.402;2022-12-16T04:33:20;27.48;;;16.77;;
48881;SDS011;57063;51.406;-2.402;2022-12-16T04:36:05;27.77;;;16.98;;
48881;SDS011;57063;51.406;-2.402;2022-12-16T04:38:49;27.45;;;15.07;;
48881;SDS011;57063;51.406;-2.402;2022-12-16T04:41:33;31.95;;;17.60;;
48881;SDS011;57063;51.406;-2.402;2022-12-16T04:44:34;26.63;;;16.90;;
48881;SDS011;57063;51.406;-2.402;2022-12-16T04:47:18;26.67;;;16.75;;
48881;SDS011;57063;51.406;-2.402;2022-12-16T04:50:02;32.78;;;17.50;;
48881;SDS011;57063;51.406;-2.402;2022-12-16T04:52:49;23.52;;;14.98;;
48881;SDS011;57063;51.406;-2.402;2022-12-16T04:55:34;31.23;;;19.23;;
48881;SDS011;57063;51.406;-2.402;2022-12-16T04:58:18;36.67;;;17.95;;
48881;SDS011;57063;51.406;-2.402;2022-12-16T05:01:02;28.73;;;16.92;;
48881;SDS011;57063;51.406;-2.402;2022-12-16T05:03:46;31.60;;;17.80;;
48881;SDS011;57063;51.406;-2.402;2022-12-16T05:06:30;26.25;;;17.10;;
48881;SDS011;57063;51.406;-2.402;2022-12-16T05:09:14;30.60;;;18.13;;
48881;SDS011;57063;51.406;-2.402;2022-12-16T05:11:58;30.75;;;18.08;;
48881;SDS011;57063;51.406;-2.402;2022-12-16T05:14:41;29.70;;;15.88;;
48881;SDS011;57063;51.406;-2.402;2022-12-16T05:17:25;24.88;;;16.25;;
48881;SDS011;57063;51.406;-2.402;2022-12-16T05:20:09;29.17;;;17.25;;
48881;SDS011;57063;51.406;-2.402;2022-12-16T05:22:56;27.38;;;16.45;;
48881;SDS011;57063;51.406;-2.402;2022-12-16T05:25:40;26.20;;;16.13;;
48881;SDS011;57063;51.406;-2.402;2022-12-16T05:28:25;26.80;;;16.45;;
48881;SDS011;57063;51.406;-2.402;2022-12-16T05:31:10;25.85;;;14.93;;
48881;SDS011;57063;51.406;-2.402;2022-12-16T05:33:54;24.10;;;16.33;;
48881;SDS011;57063;51.406;-2.402;2022-12-16T05:36:38;28.55;;;15.07;;
48881;SDS011;57063;51.406;-2.402;2022-12-16T05:39:22;32.70;;;17.63;;
48881;SDS011;57063;51.406;-2.402;2022-12-16T05:42:05;29.58;;;16.95;;
48881;SDS011;57063;51.406;-2.402;2022-12-16T05:44:50;28.13;;;16.92;;
48881;SDS011;57063;51.406;-2.402;2022-12-16T05:52:48;29.65;;;17.40;;
48881;SDS011;57063;51.406;-2.402;2022-12-16T05:55:33;32.03;;;17.27;;
48881;SDS011;57063;51.406;-2.402;2022-12-16T05:58:17;30.45;;;17.65;;
48881;SDS011;57063;51.406;-2.402;2022-12-16T06:01:05;40.03;;;18.70;;
48881;SDS011;57063;51.406;-2.402;2022-12-16T06:03:49;31.08;;;17.67;;
48881;SDS011;57063;51.406;-2.402;2022-12-16T06:06:38;32.17;;;18.88;;
48881;SDS011;57063;51.406;-2.402;2022-12-16T06:09:24;33.22;;;18.98;;
48881;SDS011;57063;51.406;-2.402;2022-12-16T06:12:08;33.78;;;17.52;;
48881;SDS011;57063;51.406;-2.402;2022-12-16T06:14:52;28.52;;;17.13;;
48881;SDS011;57063;51.406;-2.402;2022-12-16T06:17:36;28.52;;;17.52;;
48881;SDS011;57063;51.406;-2.402;2022-12-16T06:20:23;24.23;;;16.00;;
48881;SDS011;57063;51.406;-2.402;2022-12-16T06:23:07;28.00;;;16.67;;
48881;SDS011;57063;51.406;-2.402;2022-12-16T06:25:51;32.05;;;16.85;;
48881;SDS011;57063;51.406;-2.402;2022-12-16T06:28:35;35.05;;;17.38;;
48881;SDS011;57063;51.406;-2.402;2022-12-16T06:31:19;29.90;;;16.70;;
48881;SDS011;57063;51.406;-2.402;2022-12-16T06:34:03;31.38;;;17.42;;
48881;SDS011;57063;51.406;-2.402;2022-12-16T06:36:47;30.98;;;16.83;;
48881;SDS011;57063;51.406;-2.402;2022-12-16T06:39:31;33.15;;;19.88;;
48881;SDS011;57063;51.406;-2.402;2022-12-16T06:42:15;27.23;;;17.40;;
48881;SDS011;57063;51.406;-2.402;2022-12-16T06:44:59;35.83;;;18.77;;
48881;SDS011;57063;51.406;-2.402;2022-12-16T06:47:43;24.20;;;16.17;;
48881;SDS011;57063;51.406;-2.402;2022-12-16T06:50:27;35.13;;;17.45;;
48881;SDS011;57063;51.406;-2.402;2022-12-16T06:53:12;36.15;;;18.20;;
48881;SDS011;57063;51.406;-2.402;2022-12-16T06:55:56;35.00;;;18.85;;
48881;SDS011;57063;51.406;-2.402;2022-12-16T06:58:40;36.08;;;18.00;;
48881;SDS011;57063;51.406;-2.402;2022-12-16T07:01:24;38.08;;;17.67;;
48881;SDS011;57063;51.406;-2.402;2022-12-16T07:04:08;29.15;;;17.15;;
48881;SDS011;57063;51.406;-2.402;2022-12-16T07:06:51;31.75;;;17.40;;
48881;SDS011;57063;51.406;-2.402;2022-12-16T07:09:35;31.17;;;17.88;;
48881;SDS011;57063;51.406;-2.402;2022-12-16T07:12:19;29.70;;;16.45;;
48881;SDS011;57063;51.406;-2.402;2022-12-16T07:15:03;33.80;;;18.58;;
48881;SDS011;57063;51.406;-2.402;2022-12-16T07:17:48;38.72;;;18.52;;
48881;SDS011;57063;51.406;-2.402;2022-12-16T07:20:32;38.05;;;18.75;;
48881;SDS011;57063;51.406;-2.402;2022-12-16T07:23:15;33.50;;;18.25;;
48881;SDS011;57063;51.406;-2.402;2022-12-16T07:26:00;29.52;;;15.90;;
48881;SDS011;57063;51.406;-2.402;2022-12-16T07:28:43;29.40;;;16.67;;
48881;SDS011;57063;51.406;-2.402;2022-12-16T07:31:27;27.73;;;15.88;;
48881;SDS011;57063;51.406;-2.402;2022-12-16T07:34:12;28.48;;;16.90;;
48881;SDS011;57063;51.406;-2.402;2022-12-16T07:36:56;32.38;;;18.95;;
48881;SDS011;57063;51.406;-2.402;2022-12-16T07:39:40;33.58;;;19.40;;
48881;SDS011;57063;51.406;-2.402;2022-12-16T07:42:24;35.80;;;18.85;;
48881;SDS011;57063;51.406;-2.402;2022-12-16T07:45:08;38.58;;;19.75;;
48881;SDS011;57063;51.406;-2.402;2022-12-16T07:47:53;32.67;;;19.17;;
48881;SDS011;57063;51.406;-2.402;2022-12-16T07:50:37;32.88;;;17.13;;
48881;SDS011;57063;51.406;-2.402;2022-12-16T07:53:22;28.58;;;17.40;;
48881;SDS011;57063;51.406;-2.402;2022-12-16T07:56:06;31.48;;;16.40;;
48881;SDS011;57063;51.406;-2.402;2022-12-16T07:58:51;32.97;;;18.00;;
48881;SDS011;57063;51.406;-2.402;2022-12-16T08:01:39;28.27;;;17.88;;
48881;SDS011;57063;51.406;-2.402;2022-12-16T08:04:24;38.13;;;20.73;;
48881;SDS011;57063;51.406;-2.402;2022-12-16T08:07:09;27.85;;;17.67;;
48881;SDS011;57063;51.406;-2.402;2022-12-16T08:09:53;32.85;;;16.40;;
48881;SDS011;57063;51.406;-2.402;2022-12-16T08:12:37;27.60;;;15.68;;
48881;SDS011;57063;51.406;-2.402;2022-12-16T08:15:21;35.08;;;18.98;;
48881;SDS011;57063;51.406;-2.402;2022-12-16T08:18:06;26.38;;;15.50;;
48881;SDS011;57063;51.406;-2.402;2022-12-16T08:20:51;33.33;;;16.77;;
48881;SDS011;57063;51.406;-2.402;2022-12-16T08:23:36;35.20;;;20.23;;
48881;SDS011;57063;51.406;-2.402;2022-12-16T08:26:21;30.83;;;18.90;;
48881;SDS011;57063;51.406;-2.402;2022-12-16T08:29:07;35.10;;;19.42;;
48881;SDS011;57063;51.406;-2.402;2022-12-16T08:31:51;34.85;;;19.25;;
48881;SDS011;57063;51.406;-2.402;2022-12-16T08:34:35;36.10;;;18.00;;
48881;SDS011;57063;51.406;-2.402;2022-12-16T08:37:19;34.22;;;19.58;;
48881;SDS011;57063;51.406;-2.402;2022-12-16T08:40:03;35.17;;;17.88;;
48881;SDS011;57063;51.406;-2.402;2022-12-16T08:42:47;29.15;;;18.00;;
48881;SDS011;57063;51.406;-2.402;2022-12-16T08:45:31;27.95;;;15.30;;
48881;SDS011;57063;51.406;-2.402;2022-12-16T08:48:15;29.77;;;17.80;;
48881;SDS011;57063;51.406;-2.402;2022-12-16T08:51:01;27.48;;;15.55;;
48881;SDS011;57063;51.406;-2.402;2022-12-16T08:53:46;29.67;;;16.55;;
48881;SDS011;57063;51.406;-2.402;2022-12-16T08:56:30;31.65;;;18.60;;
48881;SDS011;57063;51.406;-2.402;2022-12-16T08:59:14;30.70;;;17.17;;
48881;SDS011;57063;51.406;-2.402;2022-12-16T09:01:58;34.33;;;20.27;;
48881;SDS011;57063;51.406;-2.402;2022-12-16T09:07:18;38.08;;;20.25;;
48881;SDS011;57063;51.406;-2.402;2022-12-16T09:10:02;38.42;;;21.20;;
48881;SDS011;57063;51.406;-2.402;2022-12-16T09:12:49;48.28;;;23.90;;
48881;SDS011;57063;51.406;-2.402;2022-12-16T09:15:43;31.75;;;18.42;;
48881;SDS011;57063;51.406;-2.402;2022-12-16T09:21:19;28.35;;;16.25;;
48881;SDS011;57063;51.406;-2.402;2022-12-16T09:24:03;28.25;;;18.60;;
48881;SDS011;57063;51.406;-2.402;2022-12-16T09:26:47;33.42;;;19.15;;
48881;SDS011;57063;51.406;-2.402;2022-12-16T09:29:37;38.80;;;18.83;;
48881;SDS011;57063;51.406;-2.402;2022-12-16T09:32:45;30.50;;;17.77;;
48881;SDS011;57063;51.406;-2.402;2022-12-16T09:35:30;26.63;;;17.20;;
48881;SDS011;57063;51.406;-2.402;2022-12-16T09:38:22;35.78;;;18.45;;
48881;SDS011;57063;51.406;-2.402;2022-12-16T09:47:21;38.63;;;21.58;;
48881;SDS011;57063;51.406;-2.402;2022-12-16T09:50:18;36.55;;;21.27;;
48881;SDS011;57063;51.406;-2.402;2022-12-16T09:53:14;36.72;;;21.45;;
48881;SDS011;57063;51.406;-2.402;2022-12-16T09:56:03;37.55;;;21.08;;
48881;SDS011;57063;51.406;-2.402;2022-12-16T09:58:50;37.55;;;21.92;;
48881;SDS011;57063;51.406;-2.402;2022-12-16T10:01:40;33.22;;;20.10;;
48881;SDS011;57063;51.406;-2.402;2022-12-16T10:04:31;35.03;;;21.77;;
48881;SDS011;57063;51.406;-2.402;2022-12-16T10:07:16;38.40;;;21.95;;
48881;SDS011;57063;51.406;-2.402;2022-12-16T10:10:24;37.97;;;22.65;;
48881;SDS011;57063;51.406;-2.402;2022-12-16T10:16:44;48.88;;;23.95;;
48881;SDS011;57063;51.406;-2.402;2022-12-16T10:23:04;49.97;;;28.80;;
48881;SDS011;57063;51.406;-2.402;2022-12-16T10:29:05;58.58;;;31.58;;
48881;SDS011;57063;51.406;-2.402;2022-12-16T10:32:28;62.97;;;34.88;;
48881;SDS011;57063;51.406;-2.402;2022-12-16T10:41:21;56.13;;;34.75;;
48881;SDS011;57063;51.406;-2.402;2022-12-16T10:44:32;50.40;;;33.60;;
48881;SDS011;57063;51.406;-2.402;2022-12-16T10:47:23;47.08;;;30.17;;
48881;SDS011;57063;51.406;-2.402;2022-12-16T10:50:11;48.20;;;28.90;;
48881;SDS011;57063;51.406;-2.402;2022-12-16T10:53:03;48.53;;;28.88;;
48881;SDS011;57063;51.406;-2.402;2022-12-16T10:59:10;39.75;;;25.60;;
48881;SDS011;57063;51.406;-2.402;2022-12-16T11:01:57;38.92;;;25.00;;
48881;SDS011;57063;51.406;-2.402;2022-12-16T11:05:05;41.17;;;26.17;;
48881;SDS011;57063;51.406;-2.402;2022-12-16T11:08:12;40.25;;;24.50;;
48881;SDS011;57063;51.406;-2.402;2022-12-16T11:11:14;32.85;;;21.70;;
48881;SDS011;57063;51.406;-2.402;2022-12-16T11:14:25;34.05;;;22.05;;
48881;SDS011;57063;51.406;-2.402;2022-12-16T11:20:09;31.83;;;21.13;;
48881;SDS011;57063;51.406;-2.402;2022-12-16T11:23:14;38.53;;;22.63;;
48881;SDS011;57063;51.406;-2.402;2022-12-16T11:26:33;33.28;;;22.40;;
48881;SDS011;57063;51.406;-2.402;2022-12-16T11:29:16;29.85;;;18.58;;
48881;SDS011;57063;51.406;-2.402;2022-12-16T11:32:23;28.95;;;19.85;;
48881;SDS011;57063;51.406;-2.402;2022-12-16T11:35:11;30.63;;;19.13;;
48881;SDS011;57063;51.406;-2.402;2022-12-16T11:38:01;29.57;;;17.97;;
48881;SDS011;57063;51.406;-2.402;2022-12-16T11:40:47;28.40;;;18.00;;
48881;SDS011;57063;51.406;-2.402;2022-12-16T11:43:35;29.88;;;17.10;;
48881;SDS011;57063;51.406;-2.402;2022-12-16T11:46:25;22.52;;;16.58;;
48881;SDS011;57063;51.406;-2.402;2022-12-16T11:49:18;25.10;;;16.38;;
48881;SDS011;57063;51.406;-2.402;2022-12-16T11:52:09;26.27;;;16.35;;
48881;SDS011;57063;51.406;-2.402;2022-12-16T11:55:10;26.08;;;16.50;;
48881;SDS011;57063;51.406;-2.402;2022-12-16T11:58:24;21.73;;;15.85;;
48881;SDS011;57063;51.406;-2.402;2022-12-16T12:02:11;29.13;;;17.52;;
48881;SDS011;57063;51.406;-2.402;2022-12-16T12:04:28;28.80;;;17.38;;
48881;SDS011;57063;51.406;-2.402;2022-12-16T12:10:10;27.77;;;18.80;;
48881;SDS011;57063;51.406;-2.402;2022-12-16T12:13:20;28.73;;;17.20;;
48881;SDS011;57063;51.406;-2.402;2022-12-16T12:22:52;28.85;;;17.48;;
48881;SDS011;57063;51.406;-2.402;2022-12-16T12:25:47;23.80;;;16.55;;
48881;SDS011;57063;51.406;-2.402;2022-12-16T12:32:05;28.85;;;17.30;;
48881;SDS011;57063;51.406;-2.402;2022-12-16T12:38:22;28.10;;;16.48;;
48881;SDS011;57063;51.406;-2.402;2022-12-16T12:44:19;27.50;;;17.70;;
48881;SDS011;57063;51.406;-2.402;2022-12-16T12:47:15;28.25;;;17.48;;
48881;SDS011;57063;51.406;-2.402;2022-12-16T12:50:07;22.58;;;15.38;;
48881;SDS011;57063;51.406;-2.402;2022-12-16T12:59:31;25.88;;;16.88;;
48881;SDS011;57063;51.406;-2.402;2022-12-16T13:02:24;29.92;;;16.55;;
48881;SDS011;57063;51.406;-2.402;2022-12-16T13:05:12;25.50;;;17.38;;
48881;SDS011;57063;51.406;-2.402;2022-12-16T13:08:29;31.77;;;17.50;;
48881;SDS011;57063;51.406;-2.402;2022-12-16T13:11:24;27.23;;;15.95;;
48881;SDS011;57063;51.406;-2.402;2022-12-16T13:17:14;30.50;;;17.33;;
48881;SDS011;57063;51.406;-2.402;2022-12-16T13:26:10;27.60;;;17.15;;
48881;SDS011;57063;51.406;-2.402;2022-12-16T13:32:26;26.70;;;16.08;;
48881;SDS011;57063;51.406;-2.402;2022-12-16T13:37:58;26.33;;;15.73;;
48881;SDS011;57063;51.406;-2.402;2022-12-16T13:40:55;25.35;;;13.85;;
48881;SDS011;57063;51.406;-2.402;2022-12-16T13:43:48;22.50;;;15.20;;
48881;SDS011;57063;51.406;-2.402;2022-12-16T13:49:49;21.17;;;13.77;;
48881;SDS011;57063;51.406;-2.402;2022-12-16T13:55:38;18.83;;;13.70;;
48881;SDS011;57063;51.406;-2.402;2022-12-16T14:04:26;23.67;;;15.23;;
48881;SDS011;57063;51.406;-2.402;2022-12-16T14:07:17;26.88;;;15.52;;
48881;SDS011;57063;51.406;-2.402;2022-12-16T14:10:03;23.00;;;15.25;;
48881;SDS011;57063;51.406;-2.402;2022-12-16T14:13:01;21.92;;;14.48;;
48881;SDS011;57063;51.406;-2.402;2022-12-16T14:16:01;21.13;;;14.32;;
48881;SDS011;57063;51.406;-2.402;2022-12-16T14:19:19;22.33;;;13.32;;
48881;SDS011;57063;51.406;-2.402;2022-12-16T14:25:24;22.23;;;12.98;;
48881;SDS011;57063;51.406;-2.402;2022-12-16T14:28:27;19.23;;;12.98;;
48881;SDS011;57063;51.406;-2.402;2022-12-16T14:31:17;27.55;;;13.88;;
48881;SDS011;57063;51.406;-2.402;2022-12-16T14:37:19;19.17;;;13.05;;
48881;SDS011;57063;51.406;-2.402;2022-12-16T14:40:24;20.42;;;12.95;;
48881;SDS011;57063;51.406;-2.402;2022-12-16T14:43:17;19.25;;;13.02;;
48881;SDS011;57063;51.406;-2.402;2022-12-16T14:46:03;19.83;;;12.27;;
48881;SDS011;57063;51.406;-2.402;2022-12-16T14:48:47;18.42;;;13.05;;
48881;SDS011;57063;51.406;-2.402;2022-12-16T14:51:33;20.73;;;12.95;;
48881;SDS011;57063;51.406;-2.402;2022-12-16T14:54:30;18.13;;;11.82;;
48881;SDS011;57063;51.406;-2.402;2022-12-16T14:57:21;19.38;;;11.57;;
48881;SDS011;57063;51.406;-2.402;2022-12-16T15:00:17;17.98;;;11.07;;
48881;SDS011;57063;51.406;-2.402;2022-12-16T15:05:57;20.90;;;12.95;;
48881;SDS011;57063;51.406;-2.402;2022-12-16T15:08:49;16.40;;;11.40;;
48881;SDS011;57063;51.406;-2.402;2022-12-16T15:11:44;18.63;;;11.65;;
48881;SDS011;57063;51.406;-2.402;2022-12-16T15:14:34;20.13;;;12.52;;
48881;SDS011;57063;51.406;-2.402;2022-12-16T15:17:54;17.80;;;11.82;;
48881;SDS011;57063;51.406;-2.402;2022-12-16T15:20:48;19.23;;;12.07;;
48881;SDS011;57063;51.406;-2.402;2022-12-16T15:23:37;22.70;;;13.77;;
48881;SDS011;57063;51.406;-2.402;2022-12-16T15:26:24;21.33;;;13.80;;
48881;SDS011;57063;51.406;-2.402;2022-12-16T15:35:23;26.17;;;15.10;;
48881;SDS011;57063;51.406;-2.402;2022-12-16T15:38:34;25.55;;;14.80;;
48881;SDS011;57063;51.406;-2.402;2022-12-16T15:44:18;24.48;;;14.80;;
48881;SDS011;57063;51.406;-2.402;2022-12-16T15:47:36;21.00;;;12.98;;
48881;SDS011;57063;51.406;-2.402;2022-12-16T15:50:18;23.35;;;13.80;;
48881;SDS011;57063;51.406;-2.402;2022-12-16T15:56:18;33.60;;;15.48;;
48881;SDS011;57063;51.406;-2.402;2022-12-16T16:02:26;26.98;;;15.98;;
48881;SDS011;57063;51.406;-2.402;2022-12-16T16:05:18;24.23;;;15.50;;
48881;SDS011;57063;51.406;-2.402;2022-12-16T16:08:05;32.28;;;18.00;;
48881;SDS011;57063;51.406;-2.402;2022-12-16T16:10:49;25.42;;;16.52;;
48881;SDS011;57063;51.406;-2.402;2022-12-16T16:13:36;27.23;;;16.63;;
48881;SDS011;57063;51.406;-2.402;2022-12-16T16:16:20;28.23;;;16.17;;
48881;SDS011;57063;51.406;-2.402;2022-12-16T16:19:08;24.50;;;16.23;;
48881;SDS011;57063;51.406;-2.402;2022-12-16T16:22:11;23.60;;;15.65;;
48881;SDS011;57063;51.406;-2.402;2022-12-16T16:24:56;27.80;;;16.13;;
48881;SDS011;57063;51.406;-2.402;2022-12-16T16:30:32;30.38;;;15.98;;
48881;SDS011;57063;51.406;-2.402;2022-12-16T16:33:16;28.05;;;17.05;;
48881;SDS011;57063;51.406;-2.402;2022-12-16T16:36:00;26.20;;;17.35;;
48881;SDS011;57063;51.406;-2.402;2022-12-16T16:38:44;31.63;;;18.17;;
48881;SDS011;57063;51.406;-2.402;2022-12-16T16:41:28;28.38;;;16.63;;
48881;SDS011;57063;51.406;-2.402;2022-12-16T16:44:12;31.63;;;20.50;;
48881;SDS011;57063;51.406;-2.402;2022-12-16T16:46:56;28.40;;;17.48;;
48881;SDS011;57063;51.406;-2.402;2022-12-16T16:49:41;30.20;;;16.65;;
48881;SDS011;57063;51.406;-2.402;2022-12-16T16:52:30;35.00;;;18.83;;
48881;SDS011;57063;51.406;-2.402;2022-12-16T16:55:16;34.25;;;20.33;;
48881;SDS011;57063;51.406;-2.402;2022-12-16T16:58:06;36.00;;;21.85;;
48881;SDS011;57063;51.406;-2.402;2022-12-16T17:00:56;34.47;;;19.48;;
48881;SDS011;57063;51.406;-2.402;2022-12-16T17:03:40;39.88;;;22.75;;
48881;SDS011;57063;51.406;-2.402;2022-12-16T17:06:25;39.22;;;22.77;;
48881;SDS011;57063;51.406;-2.402;2022-12-16T17:09:09;42.53;;;24.60;;
48881;SDS011;57063;51.406;-2.402;2022-12-16T17:11:53;37.67;;;23.42;;
48881;SDS011;57063;51.406;-2.402;2022-12-16T17:14:37;44.47;;;25.42;;
48881;SDS011;57063;51.406;-2.402;2022-12-16T17:17:21;37.00;;;23.08;;
48881;SDS011;57063;51.406;-2.402;2022-12-16T17:20:05;42.78;;;23.83;;
48881;SDS011;57063;51.406;-2.402;2022-12-16T17:22:49;42.05;;;25.27;;
48881;SDS011;57063;51.406;-2.402;2022-12-16T17:25:33;43.97;;;25.00;;
48881;SDS011;57063;51.406;-2.402;2022-12-16T17:28:18;42.58;;;25.10;;
48881;SDS011;57063;51.406;-2.402;2022-12-16T17:31:02;46.70;;;26.00;;
48881;SDS011;57063;51.406;-2.402;2022-12-16T17:33:46;54.40;;;27.48;;
48881;SDS011;57063;51.406;-2.402;2022-12-16T17:36:30;49.65;;;28.27;;
48881;SDS011;57063;51.406;-2.402;2022-12-16T17:39:14;53.00;;;29.50;;
48881;SDS011;57063;51.406;-2.402;2022-12-16T17:41:58;51.20;;;26.08;;
48881;SDS011;57063;51.406;-2.402;2022-12-16T17:44:42;50.28;;;28.77;;
48881;SDS011;57063;51.406;-2.402;2022-12-16T17:47:26;49.30;;;27.88;;
48881;SDS011;57063;51.406;-2.402;2022-12-16T17:50:10;57.00;;;30.10;;
48881;SDS011;57063;51.406;-2.402;2022-12-16T17:52:54;50.58;;;28.63;;
48881;SDS011;57063;51.406;-2.402;2022-12-16T17:55:40;51.22;;;30.75;;
48881;SDS011;57063;51.406;-2.402;2022-12-16T17:58:28;44.10;;;26.75;;
48881;SDS011;57063;51.406;-2.402;2022-12-16T18:01:17;45.55;;;27.08;;
48881;SDS011;57063;51.406;-2.402;2022-12-16T18:04:02;41.15;;;25.33;;
48881;SDS011;57063;51.406;-2.402;2022-12-16T18:06:46;51.20;;;25.85;;
48881;SDS011;57063;51.406;-2.402;2022-12-16T18:09:30;45.28;;;24.08;;
48881;SDS011;57063;51.406;-2.402;2022-12-16T18:12:14;46.03;;;24.58;;
48881;SDS011;57063;51.406;-2.402;2022-12-16T18:15:01;38.75;;;22.33;;
48881;SDS011;57063;51.406;-2.402;2022-12-16T18:17:49;36.67;;;22.48;;
48881;SDS011;57063;51.406;-2.402;2022-12-16T18:20:34;35.00;;;21.85;;
48881;SDS011;57063;51.406;-2.402;2022-12-16T18:23:18;35.88;;;22.10;;